Time;durP1;ratioP1;P1;durP2;ratioP2;P2;SDS_P1;SDS_P2;PMS_P1;PMS_P2;Temp;Humidity;BMP_temperature;BMP_pressure;BME280_temperature;BME280_humidity;BME280_pressure;Samples;Min_cycle;Max_cycle;Signal;HPM_P1;HPM_P2
2022/06/23 00:01:22;;;;;;;2.58;1.10;;;;;;;17.07;100.00;96367.78;5052051;28;20211;-58
2022/06/23 00:03:49;;;;;;;3.45;1.13;;;;;;;16.98;100.00;96364.38;5052245;28;20314;-59
2022/06/23 00:06:31;;;;;;;3.42;1.55;;;;;;;16.96;100.00;96370.94;5052302;28;20540;-58
2022/06/23 00:08:58;;;;;;;3.05;1.38;;;;;;;16.97;100.00;96369.94;5052262;28;20291;-56
2022/06/23 00:11:27;;;;;;;3.42;1.20;;;;;;;17.03;100.00;96366.50;5051982;28;20227;-59
2022/06/23 00:14:10;;;;;;;4.03;1.45;;;;;;;16.94;100.00;96379.13;5051714;28;20227;-57
2022/06/23 00:16:37;;;;;;;3.75;1.40;;;;;;;16.93;100.00;96378.31;5052523;28;20200;-57
2022/06/23 00:19:07;;;;;;;3.25;1.45;;;;;;;16.87;100.00;96368.38;5056889;28;20295;-57
2022/06/23 00:21:36;;;;;;;3.30;1.17;;;;;;;16.86;100.00;96377.41;5055757;28;20264;-57
2022/06/23 00:24:13;;;;;;;2.78;1.50;;;;;;;16.83;100.00;96369.78;5055457;28;20214;-57
2022/06/23 00:26:39;;;;;;;3.15;1.42;;;;;;;16.81;100.00;96369.16;5055873;28;20222;-57
2022/06/23 00:29:11;;;;;;;4.10;1.35;;;;;;;16.80;100.00;96367.47;5055950;28;20526;-57
2022/06/23 00:31:40;;;;;;;1.70;1.25;;;;;;;16.82;100.00;96373.47;5055755;28;20194;-57
2022/06/23 00:34:18;;;;;;;3.95;1.55;;;;;;;16.80;100.00;96378.16;5055776;28;20246;-58
2022/06/23 00:36:51;;;;;;;4.47;1.73;;;;;;;16.76;100.00;96386.72;5055279;28;20203;-57
2022/06/23 00:39:23;;;;;;;3.03;1.27;;;;;;;16.68;100.00;96385.03;5056290;28;20218;-57
2022/06/23 00:41:50;;;;;;;3.55;1.50;;;;;;;16.65;100.00;96385.38;5055769;28;20230;-58
2022/06/23 00:44:26;;;;;;;4.50;1.23;;;;;;;16.75;100.00;96380.59;5056197;28;20281;-57
2022/06/23 00:46:55;;;;;;;2.38;1.20;;;;;;;16.69;100.00;96381.31;5055650;28;20199;-59
2022/06/23 00:49:26;;;;;;;3.60;1.30;;;;;;;16.71;100.00;96375.81;5055626;28;20271;-53
2022/06/23 00:52:00;;;;;;;5.57;1.70;;;;;;;16.60;100.00;96374.44;5055546;28;20203;-56
2022/06/23 00:54:33;;;;;;;3.10;1.50;;;;;;;16.59;100.00;96380.78;5055939;28;20281;-55
2022/06/23 00:57:07;;;;;;;3.55;1.23;;;;;;;16.60;100.00;96374.44;5057327;28;20214;-53
2022/06/23 00:59:36;;;;;;;5.07;1.90;;;;;;;16.60;100.00;96368.28;5057486;28;20199;-54
2022/06/23 01:02:09;;;;;;;5.97;1.95;;;;;;;16.56;100.00;96367.81;5057885;28;20218;-52
2022/06/23 01:04:42;;;;;;;3.13;1.50;;;;;;;16.55;100.00;96373.28;5059337;28;20249;-52
2022/06/23 01:07:22;;;;;;;2.92;1.40;;;;;;;16.61;100.00;96373.44;5060149;28;20214;-51
2022/06/23 01:09:55;;;;;;;4.00;1.52;;;;;;;16.61;100.00;96370.75;5077764;28;20187;-51
2022/06/23 01:12:28;;;;;;;4.63;1.55;;;;;;;16.62;100.00;96369.72;5079921;28;20247;-56
2022/06/23 01:15:00;;;;;;;3.42;1.50;;;;;;;16.62;100.00;96369.72;5073652;28;20194;-58
2022/06/23 01:17:28;;;;;;;3.65;1.45;;;;;;;16.65;100.00;96382.69;5073234;28;20234;-57
2022/06/23 01:20:22;;;;;;;4.10;1.40;;;;;;;16.62;100.00;96380.41;5078540;28;20222;-56
2022/06/23 01:23:24;;;;;;;2.92;1.73;;;;;;;16.62;100.00;96388.41;5073606;28;20202;-57
2022/06/23 01:26:09;;;;;;;2.75;1.30;;;;;;;16.62;100.00;96391.09;5073326;28;20195;-57
2022/06/23 01:28:44;;;;;;;2.80;1.58;;;;;;;16.63;100.00;96387.41;5078303;28;20186;-58
2022/06/23 01:31:14;;;;;;;2.35;1.50;;;;;;;16.62;100.00;96391.09;5080091;28;20231;-58
2022/06/23 01:33:43;;;;;;;3.15;1.48;;;;;;;16.59;100.00;96396.81;5067351;28;20215;-56
2022/06/23 01:36:17;;;;;;;4.55;1.55;;;;;;;16.53;100.00;96397.53;5055201;28;20302;-57
2022/06/23 01:39:00;;;;;;;5.22;1.80;;;;;;;16.55;100.00;96397.31;5053555;28;20192;-57
2022/06/23 01:41:32;;;;;;;4.03;1.58;;;;;;;16.56;100.00;96389.16;5053759;28;20297;-57
2022/06/23 01:44:15;;;;;;;1.67;1.57;;;;;;;16.56;100.00;96391.84;5054095;28;20214;-57
2022/06/23 01:46:44;;;;;;;2.70;1.60;;;;;;;16.57;100.00;96380.16;5054424;28;20214;-56
2022/06/23 01:49:14;;;;;;;3.67;1.55;;;;;;;16.58;100.00;96384.47;5053242;28;20231;-56
2022/06/23 01:51:49;;;;;;;2.78;1.45;;;;;;;16.50;100.00;96381.88;5053864;28;20195;-58
2022/06/23 01:54:25;;;;;;;4.47;1.58;;;;;;;16.49;100.00;96374.88;5053232;28;20293;-56
2022/06/23 01:56:58;;;;;;;2.93;1.50;;;;;;;16.45;100.00;96384.28;5054710;28;20191;-55
2022/06/23 01:59:43;;;;;;;2.47;1.60;;;;;;;16.44;100.00;96382.59;5053528;28;20531;-55
2022/06/23 02:02:21;;;;;;;4.57;1.33;;;;;;;16.39;100.00;96383.19;5053679;28;20195;-55
2022/06/23 02:04:53;;;;;;;6.20;1.40;;;;;;;16.48;100.00;96377.72;5053918;28;20286;-55
2022/06/23 02:07:23;;;;;;;3.55;1.33;;;;;;;16.46;100.00;96380.59;5053692;28;20201;-55
2022/06/23 02:09:53;;;;;;;2.92;1.27;;;;;;;16.43;100.00;96380.97;5053537;28;20268;-56
2022/06/23 02:12:26;;;;;;;3.63;1.30;;;;;;;16.42;100.00;96381.97;5052968;28;20206;-55
2022/06/23 02:15:04;;;;;;;2.53;1.23;;;;;;;16.46;100.00;96374.44;5053687;28;20502;-56
2022/06/23 02:17:42;;;;;;;1.75;1.20;;;;;;;16.42;100.00;96379.31;5054267;28;20482;-57
2022/06/23 02:20:21;;;;;;;4.68;1.52;;;;;;;16.39;100.00;96377.00;5052760;28;20207;-58
2022/06/23 02:22:49;;;;;;;2.25;1.52;;;;;;;16.42;100.00;96376.63;5053366;28;20301;-54
2022/06/23 02:25:23;;;;;;;5.97;1.45;;;;;;;16.39;100.00;96377.00;5053570;28;20195;-58
2022/06/23 02:27:52;;;;;;;6.18;1.65;;;;;;;16.42;100.00;96381.97;5046530;28;20290;-57
2022/06/23 02:30:30;;;;;;;3.93;1.47;;;;;;;16.39;100.00;96377.00;5053027;28;20206;-51
2022/06/23 02:33:02;;;;;;;5.17;1.80;;;;;;;16.42;100.00;96384.66;5052901;28;20310;-50
2022/06/23 02:35:33;;;;;;;4.17;1.63;;;;;;;16.43;100.00;96386.31;5052769;28;20187;-51
2022/06/23 02:38:05;;;;;;;2.73;1.60;;;;;;;16.48;100.00;96383.06;5051758;28;20211;-50
2022/06/23 02:40:35;;;;;;;2.97;1.70;;;;;;;16.42;100.00;96389.97;5052894;28;20203;-51
2022/06/23 02:43:11;;;;;;;4.10;1.60;;;;;;;16.46;100.00;96380.59;5053037;28;20640;-50
2022/06/23 02:46:04;;;;;;;5.87;2.00;;;;;;;16.43;100.00;96383.63;5053349;28;20187;-50
2022/06/23 02:48:55;;;;;;;3.83;1.80;;;;;;;16.46;100.00;96380.59;5052516;28;20234;-50
2022/06/23 02:51:33;;;;;;;4.67;1.60;;;;;;;16.47;100.00;96378.75;5035403;28;20278;-50
2022/06/23 02:54:19;;;;;;;3.10;1.50;;;;;;;16.46;100.00;96377.09;5053034;28;20207;-50
2022/06/23 02:57:09;;;;;;;3.73;1.80;;;;;;;16.47;100.00;96370.75;5052418;28;20207;-51
2022/06/23 02:59:41;;;;;;;3.60;2.00;;;;;;;16.50;100.00;96376.53;5052787;28;20234;-51
2022/06/23 03:02:15;;;;;;;2.07;1.40;;;;;;;16.53;100.00;96376.16;5051507;28;20229;-51
2022/06/23 03:04:45;;;;;;;4.07;1.80;;;;;;;16.53;100.00;96386.84;5052394;28;20628;-50
2022/06/23 03:07:14;;;;;;;6.07;2.27;;;;;;;16.53;100.00;96386.84;5052745;28;20229;-51
2022/06/23 03:09:43;;;;;;;2.90;1.83;;;;;;;16.56;100.00;96386.50;5052674;28;20203;-50
2022/06/23 03:12:13;;;;;;;5.33;1.93;;;;;;;16.57;100.00;96388.16;5054154;28;20230;-50
2022/06/23 03:14:46;;;;;;;4.20;1.75;;;;;;;16.63;100.00;96398.09;5061165;28;20231;-50
2022/06/23 03:17:19;;;;;;;3.87;1.80;;;;;;;16.64;100.00;96405.09;5054025;28;20282;-50
2022/06/23 03:20:02;;;;;;;3.87;1.87;;;;;;;16.62;100.00;96409.78;5054397;28;20290;-51
2022/06/23 03:22:35;;;;;;;5.03;1.50;;;;;;;16.58;100.00;96405.00;5062865;28;20207;-51
2022/06/23 03:25:05;;;;;;;2.20;1.80;;;;;;;16.60;100.00;96403.81;5071605;28;20206;-52
2022/06/23 03:27:41;;;;;;;3.53;1.63;;;;;;;16.56;100.00;96407.03;5062518;28;20317;-52
2022/06/23 03:30:20;;;;;;;4.00;1.80;;;;;;;16.60;100.00;96411.81;5052538;28;20596;-50
2022/06/23 03:32:52;;;;;;;5.03;1.50;;;;;;;16.60;100.00;96414.47;5052015;28;20207;-51
2022/06/23 03:35:23;;;;;;;2.40;2.10;;;;;;;16.57;100.00;96411.34;5052306;28;21269;-50
2022/06/23 03:37:59;;;;;;;5.20;1.80;;;;;;;16.57;100.00;96404.19;5052316;28;20210;-50
2022/06/23 03:43:18;;;;;;;3.93;1.80;;;;;;;16.63;100.00;96398.09;5052586;28;20207;-51
2022/06/23 03:45:49;;;;;;;7.43;2.00;;;;;;;16.64;100.00;96398.91;5051957;28;20229;-51
2022/06/23 03:48:22;;;;;;;3.90;1.80;;;;;;;16.69;100.00;96405.34;5052062;28;20284;-50
2022/06/23 03:50:51;;;;;;;4.85;2.00;;;;;;;16.69;100.00;96402.69;5051881;28;20226;-50
2022/06/23 03:53:20;;;;;;;4.87;1.80;;;;;;;16.67;100.00;96402.03;5053803;28;20308;-50
2022/06/23 03:55:50;;;;;;;2.85;1.90;;;;;;;16.65;100.00;96400.59;5056565;28;20286;-50
2022/06/23 03:58:20;;;;;;;3.07;1.80;;;;;;;16.63;100.00;96413.28;5054525;28;20601;-50
2022/06/23 04:01:04;;;;;;;4.65;1.90;;;;;;;16.64;100.00;96409.59;5055793;28;20546;-50
2022/06/23 04:03:37;;;;;;;2.43;1.67;;;;;;;16.72;100.00;96415.66;5055564;28;20203;-49
2022/06/23 04:06:24;;;;;;;5.50;2.03;;;;;;;16.73;100.00;96411.16;5055316;28;20211;-49
2022/06/23 04:09:05;;;;;;;4.18;1.50;;;;;;;16.76;100.00;96414.28;5055933;28;20241;-50
2022/06/23 04:11:46;;;;;;;2.67;2.07;;;;;;;16.80;100.00;96404.88;5056037;28;20195;-51
2022/06/23 04:14:25;;;;;;;2.63;1.90;;;;;;;16.93;100.00;96414.91;5056214;28;20299;-51
2022/06/23 04:16:54;;;;;;;2.07;1.87;;;;;;;17.20;100.00;96408.00;5056084;28;20294;-52
2022/06/23 04:19:26;;;;;;;3.90;1.42;;;;;;;17.55;100.00;96415.13;5055608;28;20655;-51
2022/06/23 04:22:02;;;;;;;4.03;1.67;;;;;;;18.03;100.00;96416.16;5055998;28;20944;-51
2022/06/23 04:24:29;;;;;;;3.83;1.65;;;;;;;18.27;100.00;96406.88;5056198;28;20286;-52
2022/06/23 04:26:58;;;;;;;5.38;2.20;;;;;;;18.37;100.00;96415.38;5056632;28;20290;-51
2022/06/23 04:29:28;;;;;;;7.50;1.90;;;;;;;18.63;100.00;96420.91;5056214;28;20588;-51
2022/06/23 04:32:01;;;;;;;2.78;1.70;;;;;;;18.80;100.00;96414.19;5056912;28;20702;-51
2022/06/23 04:34:33;;;;;;;3.20;1.60;;;;;;;18.87;100.00;96412.38;5057218;28;20210;-51
2022/06/23 04:36:59;;;;;;;2.95;2.20;;;;;;;18.87;100.00;96416.91;5054351;28;20207;-51
2022/06/23 04:39:32;;;;;;;3.42;2.00;;;;;;;18.90;100.00;96408.47;5056116;28;20203;-51
2022/06/23 04:42:07;;;;;;;3.67;2.00;;;;;;;19.01;100.00;96409.72;5055714;28;20211;-51
2022/06/23 04:44:35;;;;;;;5.25;2.15;;;;;;;19.19;100.00;96407.31;5055395;28;20191;-51
2022/06/23 04:47:07;;;;;;;2.33;1.77;;;;;;;19.31;99.90;96403.00;5054959;28;20203;-51
2022/06/23 04:49:39;;;;;;;3.40;2.08;;;;;;;19.43;99.49;96409.47;5054772;28;20325;-51
2022/06/23 04:52:13;;;;;;;4.07;1.70;;;;;;;19.50;98.77;96410.28;5037368;28;20210;-51
2022/06/23 04:54:49;;;;;;;4.57;1.92;;;;;;;19.48;98.12;96423.09;5054926;28;20207;-50
2022/06/23 04:57:20;;;;;;;4.78;1.95;;;;;;;19.49;97.36;96419.38;5055003;28;20191;-50
2022/06/23 04:59:51;;;;;;;2.10;1.80;;;;;;;19.28;98.98;96411.44;5055036;28;20187;-50
2022/06/23 05:02:26;;;;;;;2.75;1.80;;;;;;;19.09;100.00;96429.16;5055031;28;20203;-51
2022/06/23 05:05:04;;;;;;;6.18;2.60;;;;;;;18.99;100.00;96425.19;5054413;28;20222;-50
2022/06/23 05:07:35;;;;;;;7.50;2.15;;;;;;;19.01;100.00;96429.31;5055191;28;20292;-51
2022/06/23 05:10:07;;;;;;;3.85;1.90;;;;;;;19.09;100.00;96429.16;5054964;28;20196;-50
2022/06/23 05:12:37;;;;;;;2.83;2.10;;;;;;;19.22;100.00;96431.03;5054497;28;20198;-53
2022/06/23 05:15:11;;;;;;;2.28;2.00;;;;;;;19.43;100.00;96436.28;5054936;28;20241;-51
2022/06/23 05:17:43;;;;;;;4.90;1.73;;;;;;;19.62;100.00;96430.13;5054359;28;20282;-51
2022/06/23 05:20:30;;;;;;;3.95;1.98;;;;;;;19.84;99.94;96420.84;5054750;28;20306;-51
2022/06/23 05:22:59;;;;;;;5.30;1.98;;;;;;;19.99;99.49;96427.88;5054861;28;20730;-51
2022/06/23 05:25:35;;;;;;;3.38;1.95;;;;;;;20.19;99.41;96420.66;5054549;28;20196;-51
2022/06/23 05:28:04;;;;;;;4.65;2.03;;;;;;;20.26;97.57;96418.78;5054863;28;20297;-51
2022/06/23 05:30:34;;;;;;;3.20;1.90;;;;;;;20.54;96.54;96421.22;5055023;28;20639;-51
2022/06/23 05:33:06;;;;;;;5.07;2.22;;;;;;;20.79;94.82;96422.19;5067270;28;20205;-54
2022/06/23 05:35:37;;;;;;;9.23;2.30;;;;;;;21.06;93.83;96420.22;5064814;28;20227;-51
2022/06/23 05:38:06;;;;;;;4.72;1.95;;;;;;;21.12;91.44;96414.84;5054536;28;20187;-51
2022/06/23 05:40:37;;;;;;;5.40;2.08;;;;;;;21.24;91.09;96417.69;5053882;28;20199;-53
2022/06/23 05:43:04;;;;;;;4.10;2.10;;;;;;;21.56;90.60;96418.53;5053544;28;20207;-51
2022/06/23 05:45:41;;;;;;;5.43;2.45;;;;;;;21.72;87.95;96413.44;5054273;28;20231;-51
2022/06/23 05:48:12;;;;;;;6.60;2.60;;;;;;;21.91;86.30;96425.16;5054243;28;20191;-51
2022/06/23 05:50:48;;;;;;;7.03;2.55;;;;;;;21.96;84.63;96421.81;5053510;28;20314;-51
2022/06/23 05:53:24;;;;;;;3.63;2.10;;;;;;;22.16;85.48;96423.28;5053902;28;20273;-52
2022/06/23 05:55:53;;;;;;;3.90;2.47;;;;;;;22.23;84.51;96420.53;5054269;28;20245;-51
2022/06/23 05:58:28;;;;;;;5.38;2.30;;;;;;;22.50;82.13;96419.22;5053939;28;20214;-51
2022/06/23 06:01:03;;;;;;;5.20;2.30;;;;;;;22.54;80.35;96420.41;5054522;28;20538;-51
2022/06/23 06:03:34;;;;;;;6.28;2.00;;;;;;;22.93;80.86;96421.88;5053687;28;20256;-51
2022/06/23 06:06:04;;;;;;;5.53;2.20;;;;;;;23.11;81.04;96421.06;5053645;28;20724;-51
2022/06/23 06:09:35;;;;;;;5.93;2.70;;;;;;;23.21;78.21;96421.31;5055591;28;20211;-50
2022/06/23 06:11:21;;;;;;;5.63;1.88;;;;;;;23.32;76.63;96420.56;5055926;28;20203;-52
2022/06/23 06:13:48;;;;;;;3.55;2.10;;;;;;;23.57;75.27;96410.47;5053891;28;20298;-52
2022/06/23 06:16:15;;;;;;;4.47;2.28;;;;;;;23.83;74.70;96414.69;5051929;28;20238;-52
2022/06/23 06:18:44;;;;;;;5.65;2.03;;;;;;;23.88;73.47;96416.69;5053780;28;20290;-51
2022/06/23 06:21:17;;;;;;;5.93;1.65;;;;;;;23.83;74.15;96421.94;5053765;28;20210;-51
2022/06/23 06:23:48;;;;;;;7.65;2.15;;;;;;;23.91;71.74;96422.44;5053395;28;20205;-52
2022/06/23 06:26:18;;;;;;;4.95;1.85;;;;;;;24.04;71.65;96410.59;5053095;28;20281;-52
2022/06/23 06:28:45;;;;;;;5.95;2.17;;;;;;;24.40;70.15;96407.72;5053570;28;20207;-52
2022/06/23 06:31:16;;;;;;;3.83;1.67;;;;;;;24.47;71.10;96410.31;5052798;28;20702;-51
2022/06/23 06:33:54;;;;;;;4.50;2.03;;;;;;;24.56;71.01;96401.59;5053253;28;20199;-51
2022/06/23 06:36:31;;;;;;;5.95;2.28;;;;;;;24.73;69.08;96410.63;5053211;28;20226;-51
2022/06/23 06:39:06;;;;;;;6.68;2.00;;;;;;;24.75;70.92;96400.41;5053233;28;20199;-50
2022/06/23 06:41:32;;;;;;;7.47;2.70;;;;;;;25.02;68.47;96411.53;5053495;28;20198;-51
2022/06/23 06:44:01;;;;;;;6.80;2.88;;;;;;;25.28;67.92;96412.88;5053442;28;20207;-50
2022/06/23 06:46:28;;;;;;;4.53;2.10;;;;;;;25.53;64.27;96407.16;5052783;28;20211;-50
2022/06/23 06:48:54;;;;;;;5.93;2.67;;;;;;;25.30;66.93;96410.75;5052365;28;20231;-51
2022/06/23 06:51:26;;;;;;;4.75;2.05;;;;;;;25.63;66.41;96399.22;5051543;28;20203;-51
2022/06/23 06:54:01;;;;;;;4.70;1.90;;;;;;;25.68;64.79;96399.31;5051934;28;20298;-51
2022/06/23 06:56:37;;;;;;;4.45;2.40;;;;;;;25.74;64.47;96396.47;5051748;28;20195;-51
2022/06/23 06:59:10;;;;;;;9.52;2.58;;;;;;;25.84;64.04;96400.41;5051699;28;20282;-52
2022/06/23 07:01:39;;;;;;;4.45;1.83;;;;;;;25.96;63.16;96395.75;5052270;28;20222;-51
2022/06/23 07:04:09;;;;;;;5.22;2.00;;;;;;;26.22;63.72;96392.38;5051833;28;20261;-51
2022/06/23 07:06:41;;;;;;;6.15;1.98;;;;;;;26.36;61.39;96393.69;5051201;28;20207;-52
2022/06/23 07:09:12;;;;;;;6.05;2.25;;;;;;;26.43;60.32;96394.34;5051857;28;20187;-51
2022/06/23 07:11:47;;;;;;;9.30;2.30;;;;;;;26.33;59.74;96388.78;5051970;28;20278;-52
2022/06/23 07:14:19;;;;;;;8.15;2.40;;;;;;;26.21;60.22;96390.78;5052033;28;20211;-52
2022/06/23 07:16:50;;;;;;;9.38;2.40;;;;;;;26.48;61.54;96389.00;5054980;28;20589;-51
2022/06/23 07:19:19;;;;;;;3.90;1.92;;;;;;;26.78;60.81;96394.06;5052816;28;20588;-51
2022/06/23 07:21:50;;;;;;;5.70;2.15;;;;;;;26.82;59.42;96391.66;5051542;28;20590;-49
2022/06/23 07:24:19;;;;;;;6.60;2.00;;;;;;;26.79;59.25;96390.25;5052739;28;20310;-51
2022/06/23 07:26:48;;;;;;;7.63;2.30;;;;;;;26.89;58.67;96386.91;5052595;28;20203;-51
2022/06/23 07:29:24;;;;;;;4.82;2.13;;;;;;;27.13;57.95;96388.28;5053309;28;20200;-52
2022/06/23 07:31:58;;;;;;;6.03;2.10;;;;;;;27.16;55.56;96388.59;5051420;28;20187;-51
2022/06/23 07:34:28;;;;;;;2.42;1.58;;;;;;;27.32;56.66;96384.16;5051439;28;20302;-52
2022/06/23 07:36:57;;;;;;;7.10;2.13;;;;;;;27.14;57.18;96377.16;5051454;28;20202;-52
2022/06/23 07:39:28;;;;;;;4.90;2.10;;;;;;;27.46;53.72;96373.72;5051336;28;20214;-53
2022/06/23 07:41:59;;;;;;;3.95;2.05;;;;;;;27.34;55.38;96379.28;5054705;28;20528;-56
2022/06/23 07:44:32;;;;;;;5.10;2.05;;;;;;;27.30;54.25;96377.34;5056892;28;20210;-51
2022/06/23 07:46:59;;;;;;;7.25;1.95;;;;;;;27.48;53.82;96369.69;5054028;28;20195;-51
2022/06/23 07:49:26;;;;;;;4.97;1.92;;;;;;;27.61;52.54;96374.72;5013885;28;1066299;-50
2022/06/23 07:51:57;;;;;;;5.53;2.08;;;;;;;27.67;51.71;96364.69;5051627;28;20207;-51
2022/06/23 07:54:25;;;;;;;6.18;2.40;;;;;;;27.67;55.50;96362.81;5051624;28;20199;-52
2022/06/23 07:56:53;;;;;;;5.65;1.98;;;;;;;27.86;54.75;96370.59;5051272;28;20204;-52
2022/06/23 07:59:24;;;;;;;6.22;2.00;;;;;;;27.65;50.70;96362.25;5050571;28;20215;-52
2022/06/23 08:01:54;;;;;;;3.97;1.95;;;;;;;28.06;50.41;96368.03;5051931;28;20195;-52
2022/06/23 08:04:26;;;;;;;4.57;1.88;;;;;;;28.12;51.62;96348.00;5052041;28;20539;-51
2022/06/23 08:06:53;;;;;;;5.10;2.13;;;;;;;28.14;52.42;96337.69;5052033;28;20188;-50
2022/06/23 08:09:23;;;;;;;3.45;1.85;;;;;;;28.16;52.83;96338.25;5051500;28;20584;-50
2022/06/23 08:14:42;;;;;;;4.85;2.30;;;;;;;28.06;50.72;96329.97;5051379;28;20230;-51
2022/06/23 08:17:12;;;;;;;6.70;2.03;;;;;;;28.38;51.95;96325.34;5051387;28;20206;-52
2022/06/23 08:19:42;;;;;;;5.35;1.67;;;;;;;28.18;50.94;96317.88;5050527;28;20227;-52
2022/06/23 08:22:13;;;;;;;6.38;1.63;;;;;;;28.73;49.75;96315.78;5051348;28;20199;-52
2022/06/23 08:24:43;;;;;;;5.75;2.13;;;;;;;28.81;49.34;96315.25;5051286;28;20947;-51
2022/06/23 08:27:14;;;;;;;7.70;2.30;;;;;;;29.03;48.99;96315.88;5051623;28;20286;-52
2022/06/23 08:29:45;;;;;;;7.00;2.20;;;;;;;29.13;45.98;96313.19;5051363;28;20290;-51
2022/06/23 08:32:12;;;;;;;4.55;1.83;;;;;;;29.25;46.35;96312.94;5051274;28;20199;-53
2022/06/23 08:34:41;;;;;;;7.28;2.10;;;;;;;29.21;47.33;96301.78;5051252;28;20219;-51
2022/06/23 08:37:14;;;;;;;5.13;2.20;;;;;;;28.96;48.37;96299.81;5054252;28;20298;-51
2022/06/23 08:39:46;;;;;;;5.40;2.03;;;;;;;29.35;49.82;96297.47;5054477;28;20187;-54
2022/06/23 08:42:18;;;;;;;5.25;2.47;;;;;;;29.25;47.23;96296.59;5055766;28;20207;-51
2022/06/23 08:44:54;;;;;;;7.50;2.30;;;;;;;29.33;47.67;96294.22;5054510;28;20295;-52
2022/06/23 08:47:24;;;;;;;7.10;2.25;;;;;;;29.09;46.60;96282.13;5054822;28;20191;-51
2022/06/23 08:49:56;;;;;;;5.65;2.22;;;;;;;29.55;46.05;96275.69;5054260;28;20234;-52
2022/06/23 08:52:29;;;;;;;6.65;2.55;;;;;;;29.50;46.43;96283.88;5054575;28;20559;-52
2022/06/23 08:55:02;;;;;;;4.35;2.17;;;;;;;29.32;49.00;96286.31;5054669;28;20241;-52
2022/06/23 08:57:34;;;;;;;9.27;2.47;;;;;;;29.22;47.37;96284.34;5054702;28;20187;-51
2022/06/23 09:00:06;;;;;;;4.97;1.90;;;;;;;29.63;46.74;96277.88;5054834;28;20518;-51
2022/06/23 09:02:38;;;;;;;8.50;2.60;;;;;;;29.45;45.68;96280.31;5054898;28;20200;-52
2022/06/23 09:05:10;;;;;;;4.53;2.03;;;;;;;29.31;46.45;96274.59;5054829;28;20207;-52
2022/06/23 09:07:46;;;;;;;9.43;2.67;;;;;;;29.37;45.20;96278.16;5054958;28;20266;-51
2022/06/23 09:10:28;;;;;;;7.65;2.47;;;;;;;29.28;50.14;96285.19;5054786;28;20213;-52
2022/06/23 09:13:07;;;;;;;6.97;2.03;;;;;;;29.54;48.64;96276.81;5053915;28;20199;-52
2022/06/23 09:15:52;;;;;;;5.55;1.98;;;;;;;29.82;48.48;96280.06;5054371;28;21390;-50
2022/06/23 09:18:45;;;;;;;5.72;2.67;;;;;;;29.79;44.85;96280.63;5055091;28;20199;-50
2022/06/23 09:21:27;;;;;;;11.25;2.70;;;;;;;29.79;44.47;96276.00;5059296;28;20207;-51
2022/06/23 09:24:35;;;;;;;6.38;2.38;;;;;;;29.79;45.48;96270.53;5062538;28;20207;-52
2022/06/23 09:27:11;;;;;;;4.13;2.22;;;;;;;29.67;45.58;96271.88;5060478;28;20191;-52
2022/06/23 09:29:48;;;;;;;5.07;2.38;;;;;;;29.81;47.17;96264.81;5053901;28;20301;-51
2022/06/23 09:32:23;;;;;;;6.65;2.20;;;;;;;30.29;45.09;96260.69;5054336;28;20271;-50
2022/06/23 09:35:07;;;;;;;5.57;2.28;;;;;;;30.47;45.12;96260.91;5054548;28;20285;-52
2022/06/23 09:37:58;;;;;;;6.05;2.20;;;;;;;30.34;46.63;96255.19;5054643;28;20291;-52
2022/06/23 09:40:40;;;;;;;6.82;2.28;;;;;;;30.28;46.40;96243.50;5054516;28;20342;-53
2022/06/23 09:43:47;;;;;;;7.35;2.40;;;;;;;30.09;46.73;96237.81;5055406;28;20254;-52
2022/06/23 09:46:47;;;;;;;5.10;2.03;;;;;;;30.36;48.25;96232.00;5042084;28;20652;-51
2022/06/23 09:49:38;;;;;;;5.28;2.30;;;;;;;30.44;44.39;96228.72;5055979;28;20277;-52
2022/06/23 09:52:58;;;;;;;5.55;2.63;;;;;;;30.37;42.56;96222.72;5057866;28;20203;-51
2022/06/23 09:55:55;;;;;;;6.80;2.10;;;;;;;30.05;40.78;96214.91;5060297;28;20230;-52
2022/06/23 09:58:36;;;;;;;5.47;2.13;;;;;;;30.34;44.09;96219.72;5069282;28;20204;-51
2022/06/23 10:01:15;;;;;;;4.80;2.45;;;;;;;30.47;43.50;96217.25;5074880;28;20179;-52
2022/06/23 10:04:11;;;;;;;10.05;2.55;;;;;;;30.54;40.97;96212.31;5078577;28;20167;-52
2022/06/23 10:07:02;;;;;;;8.75;2.90;;;;;;;30.29;44.08;96219.75;5077223;28;20196;-50
2022/06/23 10:09:41;;;;;;;6.57;2.95;;;;;;;30.48;43.13;96218.91;5078543;28;20195;-51
2022/06/23 10:12:25;;;;;;;9.68;2.70;;;;;;;30.46;41.57;96215.63;5077619;28;20182;-51
2022/06/23 10:15:08;;;;;;;9.75;2.78;;;;;;;30.31;43.02;96210.19;5077709;28;20187;-51
2022/06/23 10:17:47;;;;;;;4.80;2.38;;;;;;;30.60;45.13;96211.22;5074613;28;20204;-51
2022/06/23 10:20:43;;;;;;;9.60;2.45;;;;;;;30.57;43.66;96198.09;5076867;28;20179;-50
2022/06/23 10:23:19;;;;;;;4.55;1.90;;;;;;;30.90;42.32;96188.38;5065627;28;20187;-51
2022/06/23 10:25:59;;;;;;;5.47;2.20;;;;;;;30.88;43.60;96189.75;5078598;28;20187;-52
2022/06/23 10:28:40;;;;;;;4.05;2.15;;;;;;;30.66;41.29;96186.59;5064041;28;20266;-52
2022/06/23 10:31:15;;;;;;;9.10;2.72;;;;;;;30.54;42.34;96173.28;5053132;28;20191;-51
2022/06/23 10:34:10;;;;;;;10.68;2.97;;;;;;;30.87;43.43;96182.66;5053077;28;20536;-51
2022/06/23 10:37:11;;;;;;;10.43;2.95;;;;;;;30.92;42.67;96178.00;5052959;28;20318;-52
2022/06/23 10:40:11;;;;;;;8.00;2.55;;;;;;;30.91;43.42;96183.72;5053253;28;20226;-52
2022/06/23 10:43:02;;;;;;;5.28;2.40;;;;;;;31.11;42.28;96183.63;5053180;28;20207;-52
2022/06/23 10:45:39;;;;;;;5.22;2.13;;;;;;;31.13;41.82;96181.44;5052542;28;20207;-52
2022/06/23 10:48:31;;;;;;;7.68;2.92;;;;;;;30.95;44.03;96179.34;5051276;28;20217;-52
2022/06/23 10:51:04;;;;;;;4.90;1.80;;;;;;;31.09;43.19;96175.72;5042782;28;20203;-52
2022/06/23 10:53:47;;;;;;;7.93;2.47;;;;;;;31.13;43.72;96162.31;5054305;28;20210;-51
2022/06/23 10:56:39;;;;;;;8.75;2.28;;;;;;;31.23;41.85;96169.59;5051650;28;20215;-51
2022/06/23 10:59:30;;;;;;;5.32;2.15;;;;;;;31.37;44.42;96160.47;5051909;28;20637;-52
2022/06/23 11:02:14;;;;;;;12.13;2.92;;;;;;;31.12;44.58;96157.13;5051421;28;20631;-52
2022/06/23 11:04:59;;;;;;;7.85;2.33;;;;;;;30.95;44.12;96158.31;5051810;28;20199;-52
2022/06/23 11:07:41;;;;;;;9.23;2.65;;;;;;;31.19;43.68;96158.44;5050505;28;20195;-51
2022/06/23 11:10:34;;;;;;;8.18;3.08;;;;;;;31.31;44.72;96156.16;5051610;28;20207;-51
2022/06/23 11:13:12;;;;;;;6.22;2.92;;;;;;;31.46;42.86;96158.75;5047296;28;20662;-50
2022/06/23 11:15:46;;;;;;;5.18;2.42;;;;;;;31.38;41.91;96151.19;5052197;28;20213;-51
2022/06/23 11:18:35;;;;;;;7.80;2.50;;;;;;;31.12;44.85;96157.94;5051960;28;20294;-52
2022/06/23 11:21:11;;;;;;;7.05;2.78;;;;;;;31.33;42.62;96148.50;5053761;28;20199;-52
2022/06/23 11:23:44;;;;;;;6.80;2.75;;;;;;;31.48;43.09;96148.38;5056732;28;20277;-51
2022/06/23 11:26:16;;;;;;;7.03;2.55;;;;;;;31.67;44.39;96136.75;5068818;28;20289;-51
2022/06/23 11:28:57;;;;;;;8.43;2.47;;;;;;;31.88;43.55;96132.69;5066418;28;20187;-51
2022/06/23 11:31:34;;;;;;;7.30;2.80;;;;;;;31.81;42.43;96133.03;5053358;28;20302;-51
2022/06/23 11:34:11;;;;;;;8.55;2.83;;;;;;;31.74;41.14;96123.53;5052565;28;20293;-51
2022/06/23 11:36:54;;;;;;;8.32;2.67;;;;;;;31.75;41.99;96120.50;5051423;28;20302;-49
2022/06/23 11:39:42;;;;;;;9.93;2.70;;;;;;;31.63;40.52;96124.75;5051574;28;20233;-52
2022/06/23 11:42:32;;;;;;;6.40;2.63;;;;;;;31.62;40.30;96115.72;5052103;28;20206;-51
2022/06/23 11:45:12;;;;;;;9.90;2.90;;;;;;;31.68;40.83;96105.53;5052159;28;20191;-50
2022/06/23 11:47:52;;;;;;;8.80;2.80;;;;;;;31.81;42.01;96102.13;5051692;28;20249;-50
2022/06/23 11:50:25;;;;;;;7.63;2.75;;;;;;;31.77;43.09;96099.19;5051073;28;20230;-51
2022/06/23 11:53:14;;;;;;;8.05;2.60;;;;;;;31.73;42.13;96098.13;5050861;28;20202;-51
2022/06/23 11:55:45;;;;;;;12.07;2.97;;;;;;;31.65;42.61;96106.13;5052054;28;20229;-52
2022/06/23 11:58:33;;;;;;;7.07;2.70;;;;;;;31.35;43.43;96108.03;5061338;28;20262;-52
2022/06/23 12:01:13;;;;;;;11.15;2.80;;;;;;;31.31;42.94;96095.22;5063005;28;20657;-51
2022/06/23 12:04:33;;;;;;;5.65;2.15;;;;;;;31.62;43.81;96087.56;5052578;28;20694;-52
2022/06/23 12:07:13;;;;;;;11.55;2.92;;;;;;;31.52;45.76;96091.25;5051250;28;20533;-51
2022/06/23 12:09:45;;;;;;;8.75;2.63;;;;;;;31.46;44.01;96090.41;5051619;28;20203;-51
2022/06/23 12:12:11;;;;;;;7.82;2.10;;;;;;;31.65;44.41;96087.81;5052019;28;20533;-51
2022/06/23 12:14:39;;;;;;;8.10;2.75;;;;;;;31.67;44.79;96087.53;5054729;28;20247;-52